This is the latest recevied weather packets stored in our database for station/object WC4PEM-10. If no packets are shown the sender has not sent any weather packets the latest 10 day(s).
| Time | Temp. | Humidity | Pressure | Rain* | Wind** | Luminosity | Snow |
|---|---|---|---|---|---|---|---|
| 1778243994 | 23.89° C | 94% | 1015.5 hPa | 0 mm | - | - | - |
| 1778243835 | 23.89° C | 94% | 1015.5 hPa | 0 mm | - | - | - |
| 1778243780 | 23.89° C | 94% | 1015.5 hPa | 0 mm | - | - | - |
| 1778243752 | 23.33° C | 96% | 1015.4 hPa | 0 mm | - | - | - |
| 1778243721 | 22.22° C | 98% | 1015.4 hPa | 0 mm | - | - | - |
| 1778243480 | 23.33° C | 96% | 1015.4 hPa | 0 mm | - | - | - |
| 1778243393 | 22.78° C | 98% | 1015.4 hPa | 0 mm | - | - | - |
| 1778243180 | 22.78° C | 98% | 1015.4 hPa | 0 mm | - | - | - |
| 1778243114 | 22.22° C | 98% | 1015.4 hPa | 0 mm | - | - | - |
| 1778242969 | 22.22° C | 98% | 1015.4 hPa | 0 mm | - | - | - |
| 1778242968 | 21.67° C | 99% | 1015.3 hPa | 0 mm | - | - | - |
| 1778242880 | 22.22° C | 98% | 1015.4 hPa | 0 mm | - | - | - |
| 1778242804 | 21.67° C | 99% | 1015.3 hPa | 0 mm | - | - | - |
| 1778242580 | 21.67° C | 99% | 1015.3 hPa | 0 mm | - | - | - |
| 1778242380 | 21.11° C | 99% | 1015 hPa | 0 mm | - | - | - |
| 1778242365 | 17.22° C | 97% | 1014.5 hPa | 0 mm | - | - | - |
| 1778242280 | 21.11° C | 99% | 1015.2 hPa | 0 mm | - | - | - |
| 1778242116 | 21.11° C | 99% | 1015 hPa | 0 mm | - | - | - |
| 1778241980 | 21.11° C | 99% | 1015 hPa | 0 mm | - | - | - |
| 1778241919 | 20.56° C | 98% | 1015.1 hPa | 0 mm | - | - | - |
| 1778241690 | 20.56° C | 99% | 1015 hPa | 0 mm | - | - | - |
| 1778241680 | 20.56° C | 98% | 1015.1 hPa | 0 mm | - | - | - |
| 1778241495 | 20.56° C | 99% | 1015 hPa | 0 mm | - | - | - |
| 1778241380 | 20.56° C | 99% | 1015 hPa | 0 mm | - | - | - |
| 1778241080 | 20° C | 99% | 1014.8 hPa | 0 mm | - | - | - |
* Rain latest hour (hover to see other rain measurements)
** Current wind speed in m/s (hover to see current wind gust speed)